Flight Information

DEPARTURE
AMARILLO, TX
Elevation:
3606
Runways:
4/22 - 13502x200 - CONC-G
13/31 - 7901x150 - CONC-G
ATIS:
118.85
Clearance Delivery:
121.65
Ground:
121.9
Tower:
AMARILLO TOWER 118.3
DESTINATION
,
Elevation:
TPA:
1000 (est.)


5972.2 NM83° True-9° Var73° HDG

Flight Plan:
(click to file on line)

1. Type
2. Aircraft Identification
3. Aircraft Type / Special Equipment
4. True Airspeed
kts
5. Departure Airport
(ICAO code)
6. Arriving Airport
(ICAO code)
7. Cruising Altitude
ft
8. Alternate Airport
(ICAO code)
9. Route of Flight
10. Remarks


00:00:00 Departure ATIS: Destination ATIS:

Clearance Limit:
Route:
Altitude: Expect in minutes
Frequency:
Transponder: (7500 Hijack / 7600 Lost Comms / 7700 Emergency)


KAMA 010753Z AUTO 17009KT 10SM CLR 09/06 A2989 RMK AO2 SLP093 T00890061
Time: 2020-04-01T07:53:00Z
1585730548
Winds: 170 @ 9 kts
Visibility: 10.0 sm
Clouds (AGL): CLR
Temperature: 8.9 C
Dew Point: 6.1 C
Pressure: 29.890747 in Hgbr


Notes:

Data extracted from FAA Digital Chart Supplement. Effective: 0901Z Thursday, Mar 26, 2020 to 0901Z Thursday, May 21, 2020
Current ATIS data is provided courtisy of PilotEdge.